Time;durP1;ratioP1;P1;durP2;ratioP2;P2;SDS_P1;SDS_P2;PMS_P1;PMS_P2;Temp;Humidity;BMP_temperature;BMP_pressure;BME280_temperature;BME280_humidity;BME280_pressure;Samples;Min_cycle;Max_cycle;Signal;HPM_P1;HPM_P2
2023/04/18 00:00:55;;;;;;;4.32;4.03;;;16.40;58.20;;;;;;5074489;28;20586;-64
2023/04/18 00:03:20;;;;;;;4.38;4.07;;;16.40;58.20;;;;;;5073578;28;20162;-65
2023/04/18 00:05:47;;;;;;;4.43;4.03;;;16.30;58.20;;;;;;5074728;28;20181;-62
2023/04/18 00:08:13;;;;;;;4.40;4.10;;;16.40;58.20;;;;;;5074380;28;20253;-63
2023/04/18 00:10:38;;;;;;;4.70;4.30;;;16.40;58.20;;;;;;5073668;28;20209;-62
2023/04/18 00:13:04;;;;;;;4.57;4.18;;;16.40;58.20;;;;;;5074408;28;20178;-63
2023/04/18 00:15:30;;;;;;;4.88;4.47;;;16.40;58.10;;;;;;5074119;28;20209;-64
2023/04/18 00:17:55;;;;;;;5.05;4.65;;;16.40;58.10;;;;;;5073869;28;20609;-63
2023/04/18 00:20:21;;;;;;;4.70;4.30;;;16.40;58.10;;;;;;5074305;28;20262;-63
2023/04/18 00:22:46;;;;;;;4.15;3.85;;;16.40;58.10;;;;;;5074079;28;20230;-63
2023/04/18 00:25:12;;;;;;;4.32;3.97;;;16.40;58.10;;;;;;5073289;28;20166;-63
2023/04/18 00:27:38;;;;;;;4.60;4.20;;;16.40;58.20;;;;;;5074148;28;20179;-63
2023/04/18 00:30:05;;;;;;;4.50;4.10;;;16.40;58.10;;;;;;5073880;28;20717;-64
2023/04/18 00:32:30;;;;;;;4.85;4.43;;;16.20;58.00;;;;;;5073518;28;20257;-64
2023/04/18 00:34:56;;;;;;;4.60;4.20;;;16.30;58.00;;;;;;5074027;28;20262;-65
2023/04/18 00:37:21;;;;;;;4.75;4.35;;;16.30;58.00;;;;;;5073685;28;20190;-64
2023/04/18 00:39:47;;;;;;;4.70;4.20;;;16.30;58.00;;;;;;5073160;28;20621;-63
2023/04/18 00:42:12;;;;;;;4.05;3.75;;;16.30;58.00;;;;;;5073570;28;20211;-63
2023/04/18 00:44:38;;;;;;;4.57;4.18;;;16.30;57.90;;;;;;5073647;28;20261;-63
2023/04/18 00:47:03;;;;;;;4.57;4.18;;;16.30;57.90;;;;;;5073308;28;20205;-63
2023/04/18 00:49:29;;;;;;;5.03;4.45;;;16.30;58.00;;;;;;5073323;28;20231;-63
2023/04/18 00:51:57;;;;;;;4.97;4.50;;;16.30;58.00;;;;;;5071828;28;20311;-63
2023/04/18 00:54:23;;;;;;;4.35;4.05;;;16.30;57.90;;;;;;5072312;28;20174;-63
2023/04/18 00:56:48;;;;;;;4.68;4.28;;;16.30;57.90;;;;;;5073206;28;20170;-64
2023/04/18 00:59:14;;;;;;;4.20;3.80;;;16.30;57.90;;;;;;5072209;28;20178;-64
2023/04/18 01:01:40;;;;;;;4.65;4.28;;;16.30;57.90;;;;;;5073540;28;20177;-64
2023/04/18 01:04:07;;;;;;;4.47;4.15;;;16.30;57.90;;;;;;5073098;28;20534;-63
2023/04/18 01:06:32;;;;;;;4.50;4.10;;;16.30;57.90;;;;;;5072704;28;20167;-63
2023/04/18 01:08:58;;;;;;;4.78;4.38;;;16.30;57.90;;;;;;5072007;28;20694;-62
2023/04/18 01:11:23;;;;;;;5.05;4.65;;;16.30;57.90;;;;;;5072852;28;20185;-62
2023/04/18 01:14:05;;;;;;;5.30;4.50;;;16.20;57.90;;;;;;5072322;28;20162;-62
2023/04/18 01:16:35;;;;;;;4.70;4.35;;;16.30;57.90;;;;;;5073172;28;20277;-63
2023/04/18 01:19:01;;;;;;;4.88;4.47;;;16.20;57.80;;;;;;5073148;28;20181;-62
2023/04/18 01:21:30;;;;;;;4.55;4.15;;;16.20;57.90;;;;;;5071947;28;20551;-63
2023/04/18 01:24:08;;;;;;;4.50;4.10;;;16.20;57.90;;;;;;5072768;28;20256;-62
2023/04/18 01:26:34;;;;;;;4.57;4.28;;;16.20;57.80;;;;;;5072030;28;20235;-62
2023/04/18 01:28:59;;;;;;;4.95;4.55;;;16.20;57.80;;;;;;5072256;28;20210;-63
2023/04/18 01:31:25;;;;;;;5.15;4.28;;;16.20;57.80;;;;;;5072415;28;20539;-64
2023/04/18 01:33:50;;;;;;;5.25;4.80;;;16.20;57.80;;;;;;5072849;28;20691;-64
2023/04/18 01:36:16;;;;;;;4.45;4.05;;;16.20;57.80;;;;;;5071670;28;20182;-64
2023/04/18 01:38:41;;;;;;;4.97;4.57;;;16.20;57.80;;;;;;5072539;28;20174;-63
2023/04/18 01:41:07;;;;;;;4.55;4.18;;;16.20;57.80;;;;;;5072054;28;20170;-64
2023/04/18 01:43:32;;;;;;;4.60;4.20;;;16.20;57.80;;;;;;5072435;28;20228;-63
2023/04/18 01:45:58;;;;;;;4.72;4.35;;;16.20;57.80;;;;;;5072605;28;20219;-63
2023/04/18 01:48:23;;;;;;;4.78;4.38;;;16.20;57.70;;;;;;5071529;28;20265;-63
2023/04/18 01:50:49;;;;;;;4.85;4.45;;;16.20;57.80;;;;;;5072548;28;20183;-62
2023/04/18 01:53:16;;;;;;;5.13;4.72;;;16.10;57.70;;;;;;5072259;28;20261;-63
2023/04/18 01:55:41;;;;;;;4.75;4.40;;;16.20;57.80;;;;;;5072011;28;20249;-62
2023/04/18 01:58:07;;;;;;;4.78;4.38;;;16.20;57.70;;;;;;5072092;28;20645;-63
2023/04/18 02:00:32;;;;;;;4.78;4.38;;;16.20;57.70;;;;;;5072592;28;20301;-63
2023/04/18 02:02:58;;;;;;;4.30;3.97;;;16.10;57.60;;;;;;5071593;28;20538;-63
2023/04/18 02:05:26;;;;;;;5.05;4.65;;;16.10;57.60;;;;;;5072188;28;20873;-63
2023/04/18 02:07:51;;;;;;;4.65;4.30;;;16.10;57.60;;;;;;5072373;28;20666;-61
2023/04/18 02:10:17;;;;;;;5.22;4.63;;;16.10;57.60;;;;;;5071438;28;20222;-62
2023/04/18 02:12:45;;;;;;;5.40;4.90;;;16.10;57.60;;;;;;5072482;28;20174;-62
2023/04/18 02:15:11;;;;;;;5.00;4.60;;;16.10;57.60;;;;;;5072192;28;20262;-63
2023/04/18 02:17:37;;;;;;;4.88;4.30;;;16.10;57.60;;;;;;5071528;28;20630;-63
2023/04/18 02:20:02;;;;;;;5.15;4.75;;;16.10;57.60;;;;;;5072396;28;20629;-62
2023/04/18 02:22:28;;;;;;;4.45;4.15;;;16.10;57.60;;;;;;5071715;28;20226;-62
2023/04/18 02:24:54;;;;;;;4.63;4.22;;;16.10;57.60;;;;;;5071645;28;20750;-62
2023/04/18 02:27:19;;;;;;;4.78;4.38;;;16.10;57.60;;;;;;5073427;28;20185;-63
2023/04/18 02:29:45;;;;;;;4.55;4.15;;;16.10;57.60;;;;;;5076258;28;20222;-63
2023/04/18 02:32:10;;;;;;;4.88;4.47;;;16.10;57.60;;;;;;5075234;28;20184;-63
2023/04/18 02:34:36;;;;;;;4.65;4.28;;;16.10;57.60;;;;;;5076162;28;20235;-63
2023/04/18 02:37:01;;;;;;;4.78;4.38;;;16.10;57.60;;;;;;5076085;28;20576;-63
2023/04/18 02:39:27;;;;;;;4.82;4.28;;;16.10;57.60;;;;;;5075303;28;20538;-63
2023/04/18 02:41:52;;;;;;;4.80;4.40;;;16.10;57.60;;;;;;5076297;28;20524;-63
2023/04/18 02:44:18;;;;;;;4.47;4.18;;;16.10;57.60;;;;;;5075809;28;20177;-63
2023/04/18 02:46:44;;;;;;;4.70;4.18;;;16.00;57.50;;;;;;5075259;28;20170;-63
2023/04/18 02:49:09;;;;;;;5.18;4.70;;;16.10;57.60;;;;;;5075567;28;20213;-62
2023/04/18 02:51:35;;;;;;;5.28;4.88;;;16.00;57.60;;;;;;5075170;28;20194;-63
2023/04/18 02:54:06;;;;;;;4.78;4.38;;;16.00;57.50;;;;;;5075813;28;20247;-63
2023/04/18 02:56:31;;;;;;;5.25;4.70;;;16.00;57.50;;;;;;5076109;28;20189;-63
2023/04/18 02:58:57;;;;;;;4.95;4.45;;;16.00;57.50;;;;;;5074997;28;20170;-64
2023/04/18 03:01:22;;;;;;;5.13;4.63;;;16.00;57.50;;;;;;5075338;28;20637;-63
2023/04/18 03:03:48;;;;;;;5.30;4.80;;;16.00;57.50;;;;;;5075413;28;20181;-63
2023/04/18 03:06:13;;;;;;;4.90;4.50;;;16.00;57.50;;;;;;5074524;28;20174;-63
2023/04/18 03:08:39;;;;;;;5.45;4.95;;;16.00;57.50;;;;;;5075622;28;20265;-62
2023/04/18 03:11:05;;;;;;;4.18;3.88;;;16.00;57.50;;;;;;5075205;28;20182;-62
2023/04/18 03:13:31;;;;;;;4.82;4.45;;;16.00;57.60;;;;;;5074829;28;20309;-62
2023/04/18 03:15:56;;;;;;;5.15;4.75;;;16.00;57.50;;;;;;5075208;28;20185;-62
2023/04/18 03:18:22;;;;;;;4.90;4.50;;;16.00;57.40;;;;;;5075068;28;20185;-63
2023/04/18 03:20:47;;;;;;;4.53;4.20;;;16.00;57.50;;;;;;5074423;28;20177;-62
2023/04/18 03:23:13;;;;;;;5.38;4.88;;;16.00;57.50;;;;;;5073802;28;20228;-62
2023/04/18 03:25:39;;;;;;;5.68;5.07;;;16.00;57.40;;;;;;5074110;28;20172;-62
2023/04/18 03:28:04;;;;;;;5.00;4.53;;;16.00;57.40;;;;;;5073072;28;20539;-63
2023/04/18 03:30:30;;;;;;;4.93;4.47;;;15.90;57.40;;;;;;5074022;28;20271;-63
2023/04/18 03:32:56;;;;;;;5.40;4.90;;;15.90;57.40;;;;;;5073977;28;20173;-64
2023/04/18 03:35:21;;;;;;;4.38;3.90;;;15.90;57.40;;;;;;5072840;28;20671;-63
2023/04/18 03:37:47;;;;;;;4.55;4.20;;;15.90;57.40;;;;;;5073424;28;20171;-63
2023/04/18 03:40:12;;;;;;;5.75;5.25;;;15.90;57.40;;;;;;5073672;28;20178;-63
2023/04/18 03:42:38;;;;;;;5.15;4.68;;;16.00;57.40;;;;;;5073110;28;20174;-63
2023/04/18 03:45:04;;;;;;;5.40;4.90;;;15.90;57.40;;;;;;5073689;28;20736;-63
2023/04/18 03:47:30;;;;;;;5.07;4.57;;;15.90;57.40;;;;;;5073631;28;20316;-63
2023/04/18 03:49:55;;;;;;;5.25;4.85;;;16.00;57.50;;;;;;5072734;28;20213;-62
2023/04/18 03:52:21;;;;;;;5.07;4.68;;;15.90;57.40;;;;;;5073316;28;20167;-62
2023/04/18 03:54:46;;;;;;;5.28;4.80;;;15.90;57.40;;;;;;5072870;28;20174;-62
2023/04/18 03:57:15;;;;;;;5.10;4.70;;;15.90;57.40;;;;;;5073283;28;20216;-62
2023/04/18 03:59:41;;;;;;;5.25;4.75;;;15.90;57.40;;;;;;5073826;28;20166;-63
2023/04/18 04:02:09;;;;;;;5.18;4.78;;;15.90;57.40;;;;;;5072297;28;20178;-63
2023/04/18 04:04:37;;;;;;;5.68;5.18;;;15.90;57.40;;;;;;5073324;28;20304;-63
2023/04/18 04:07:02;;;;;;;5.47;4.97;;;15.90;57.40;;;;;;5073461;28;20188;-63
2023/04/18 04:09:28;;;;;;;4.40;4.00;;;15.90;57.40;;;;;;5072336;28;20292;-62
2023/04/18 04:11:53;;;;;;;5.10;4.70;;;15.90;57.40;;;;;;5073398;28;20191;-62
2023/04/18 04:14:20;;;;;;;5.00;4.60;;;15.90;57.40;;;;;;5073019;28;20198;-62
2023/04/18 04:16:45;;;;;;;5.03;4.55;;;15.90;57.40;;;;;;5072280;28;20254;-62
2023/04/18 04:19:11;;;;;;;4.65;4.25;;;15.90;57.40;;;;;;5072829;28;20262;-63
2023/04/18 04:21:36;;;;;;;5.00;4.60;;;15.90;57.40;;;;;;5073168;28;20262;-62
2023/04/18 04:24:02;;;;;;;5.55;5.10;;;15.90;57.50;;;;;;5036608;28;1049737;-62
2023/04/18 04:26:29;;;;;;;4.88;4.47;;;15.90;57.40;;;;;;5073858;28;20261;-63
2023/04/18 04:28:56;;;;;;;5.18;4.78;;;15.90;57.40;;;;;;5074090;28;20260;-63
2023/04/18 04:31:21;;;;;;;5.10;4.70;;;15.90;57.40;;;;;;5072993;28;20181;-64
2023/04/18 04:33:47;;;;;;;5.45;4.95;;;15.90;57.50;;;;;;5073834;28;20170;-64
2023/04/18 04:36:15;;;;;;;5.25;4.85;;;15.90;57.50;;;;;;5073713;28;20277;-64
2023/04/18 04:38:43;;;;;;;5.38;4.90;;;15.90;57.40;;;;;;5072985;28;20639;-63
2023/04/18 04:41:08;;;;;;;4.85;4.40;;;15.90;57.40;;;;;;5073348;28;20270;-64
2023/04/18 04:43:34;;;;;;;5.30;4.80;;;15.90;57.40;;;;;;5073620;28;20202;-63
2023/04/18 04:46:02;;;;;;;5.38;4.93;;;15.90;57.40;;;;;;5072816;28;20179;-64
2023/04/18 04:48:28;;;;;;;4.72;4.40;;;15.90;57.40;;;;;;5073095;28;20183;-64
2023/04/18 04:50:55;;;;;;;5.13;4.63;;;15.80;57.30;;;;;;5072998;28;20207;-64
2023/04/18 04:53:21;;;;;;;5.28;4.88;;;15.90;57.40;;;;;;5072494;28;20174;-63
2023/04/18 04:55:47;;;;;;;5.45;4.90;;;15.80;57.40;;;;;;5073483;28;20174;-63
2023/04/18 04:58:12;;;;;;;5.30;4.80;;;15.90;57.40;;;;;;5072568;28;20299;-64
2023/04/18 05:00:38;;;;;;;4.95;4.55;;;15.80;57.30;;;;;;5073265;28;20625;-63
2023/04/18 05:03:03;;;;;;;5.20;4.78;;;15.80;57.40;;;;;;5073193;28;20621;-64
2023/04/18 05:05:29;;;;;;;5.40;4.90;;;15.80;57.50;;;;;;5072170;28;20174;-62
2023/04/18 05:07:54;;;;;;;5.32;4.88;;;15.80;57.40;;;;;;5071965;28;20641;-63
2023/04/18 05:10:20;;;;;;;5.75;4.53;;;15.80;58.00;;;;;;5072856;28;20206;-62
2023/04/18 05:12:46;;;;;;;5.13;4.72;;;15.80;57.40;;;;;;5072420;28;20197;-62
2023/04/18 05:15:12;;;;;;;5.00;4.57;;;15.80;57.40;;;;;;5072828;28;20205;-63
2023/04/18 05:17:38;;;;;;;4.97;4.57;;;15.80;57.40;;;;;;5072839;28;20174;-62
2023/04/18 05:20:04;;;;;;;4.57;4.28;;;15.80;57.30;;;;;;5072177;28;20629;-63
2023/04/18 05:22:30;;;;;;;5.57;5.18;;;15.80;57.40;;;;;;5072604;28;20701;-62
2023/04/18 05:24:56;;;;;;;5.00;4.60;;;15.80;57.40;;;;;;5072942;28;20182;-63
2023/04/18 05:27:24;;;;;;;5.32;4.82;;;15.80;57.50;;;;;;5071870;28;20635;-64
2023/04/18 05:29:50;;;;;;;5.35;4.88;;;15.80;57.40;;;;;;5072779;28;20314;-64
2023/04/18 05:32:15;;;;;;;5.05;4.65;;;15.80;57.40;;;;;;5072397;28;20265;-64
2023/04/18 05:34:41;;;;;;;5.18;4.75;;;15.80;57.50;;;;;;5072233;28;20261;-64
2023/04/18 05:37:07;;;;;;;4.80;4.30;;;15.80;57.30;;;;;;5072685;28;20257;-64
2023/04/18 05:39:32;;;;;;;5.28;4.78;;;15.80;57.30;;;;;;5072858;28;20202;-63
2023/04/18 05:41:58;;;;;;;5.18;4.78;;;15.90;57.50;;;;;;5071646;28;20179;-63
2023/04/18 05:44:24;;;;;;;5.07;4.68;;;15.80;57.30;;;;;;5072519;28;20232;-63
2023/04/18 05:46:52;;;;;;;5.28;4.78;;;15.80;57.30;;;;;;5072590;28;20174;-63
2023/04/18 05:49:18;;;;;;;4.97;4.57;;;15.80;57.30;;;;;;5071370;28;20305;-63
2023/04/18 05:51:44;;;;;;;5.22;4.72;;;15.80;57.30;;;;;;5072760;28;20257;-63
2023/04/18 05:54:09;;;;;;;5.32;4.88;;;15.80;57.30;;;;;;5072399;28;20217;-63
2023/04/18 05:56:35;;;;;;;4.93;4.53;;;15.80;57.30;;;;;;5071841;28;20185;-63
2023/04/18 05:59:01;;;;;;;4.93;4.47;;;15.80;57.30;;;;;;5071077;28;20185;-64
2023/04/18 06:01:26;;;;;;;5.07;4.68;;;15.90;57.30;;;;;;5071245;28;20235;-63
2023/04/18 06:03:53;;;;;;;4.38;4.00;;;15.90;57.20;;;;;;5072285;28;20624;-64
2023/04/18 06:06:18;;;;;;;5.18;4.68;;;16.00;57.10;;;;;;5072314;28;20170;-62
2023/04/18 06:08:44;;;;;;;5.55;4.55;;;16.20;57.00;;;;;;5070569;28;20555;-62
2023/04/18 06:11:09;;;;;;;4.43;4.03;;;16.30;56.80;;;;;;5071890;28;20659;-62
2023/04/18 06:13:36;;;;;;;4.35;4.00;;;16.50;56.60;;;;;;5072347;28;20253;-62
2023/04/18 06:16:04;;;;;;;4.97;4.47;;;16.60;56.40;;;;;;5071832;28;20175;-63
2023/04/18 06:18:30;;;;;;;4.53;4.13;;;16.90;56.20;;;;;;5072324;28;20166;-63
2023/04/18 06:20:55;;;;;;;5.70;4.38;;;16.80;56.00;;;;;;5072296;28;20177;-62
2023/04/18 06:23:21;;;;;;;4.30;3.90;;;16.90;55.90;;;;;;5071034;28;20215;-64
2023/04/18 06:25:46;;;;;;;3.90;3.60;;;16.90;55.90;;;;;;5072373;28;20539;-63
2023/04/18 06:28:12;;;;;;;3.85;3.55;;;17.10;55.80;;;;;;5072198;28;20724;-63
2023/04/18 06:30:37;;;;;;;4.32;4.03;;;17.20;56.30;;;;;;5071998;28;20209;-64
2023/04/18 06:33:03;;;;;;;4.18;3.88;;;17.20;55.50;;;;;;5072642;28;20167;-65
2023/04/18 06:35:29;;;;;;;3.90;3.60;;;17.30;55.50;;;;;;5072377;28;20177;-65
2023/04/18 06:37:54;;;;;;;3.72;3.42;;;17.40;55.40;;;;;;5071801;28;20308;-64
2023/04/18 06:40:20;;;;;;;3.80;3.40;;;17.40;55.40;;;;;;5071173;28;20261;-64
2023/04/18 06:42:45;;;;;;;4.10;3.80;;;17.50;55.40;;;;;;5072669;28;20175;-65
2023/04/18 06:45:11;;;;;;;3.72;3.42;;;17.60;55.40;;;;;;5071185;28;20321;-63
2023/04/18 06:47:37;;;;;;;3.90;3.50;;;17.60;55.40;;;;;;5072457;28;20594;-62
2023/04/18 06:50:04;;;;;;;5.65;4.05;;;17.70;55.40;;;;;;5072128;28;20225;-62
2023/04/18 06:52:30;;;;;;;3.78;3.47;;;17.70;55.30;;;;;;5071671;28;20195;-63
2023/04/18 06:54:55;;;;;;;5.05;3.85;;;17.80;55.20;;;;;;5072163;28;20268;-63
2023/04/18 06:57:21;;;;;;;5.53;4.28;;;17.70;55.40;;;;;;5071823;28;20621;-63
2023/04/18 06:59:46;;;;;;;3.88;3.38;;;17.70;55.70;;;;;;5071352;28;20175;-63
2023/04/18 07:02:12;;;;;;;5.45;4.10;;;17.70;55.70;;;;;;5071983;28;20170;-64
2023/04/18 07:04:37;;;;;;;4.53;4.07;;;17.70;55.60;;;;;;5072178;28;20659;-63
2023/04/18 07:07:04;;;;;;;6.57;3.55;;;17.70;55.70;;;;;;5071570;28;20625;-63
2023/04/18 07:09:30;;;;;;;4.18;3.80;;;17.70;55.70;;;;;;5071641;28;20703;-62
2023/04/18 07:11:55;;;;;;;6.60;3.95;;;17.70;55.80;;;;;;5071274;28;20811;-62
2023/04/18 07:14:22;;;;;;;5.32;3.80;;;17.70;55.80;;;;;;5074892;28;20281;-62
2023/04/18 07:16:47;;;;;;;5.78;3.70;;;17.60;56.00;;;;;;5075364;28;20221;-63
2023/04/18 07:19:13;;;;;;;4.13;3.53;;;17.60;56.00;;;;;;5074453;28;20171;-63
2023/04/18 07:21:39;;;;;;;4.30;3.90;;;17.50;56.10;;;;;;5075661;28;20178;-62
2023/04/18 07:24:05;;;;;;;4.60;3.50;;;17.50;56.30;;;;;;5075042;28;20230;-63
2023/04/18 07:26:31;;;;;;;4.40;4.00;;;17.50;56.30;;;;;;5074734;28;20182;-63
2023/04/18 07:28:56;;;;;;;4.07;3.65;;;17.40;56.40;;;;;;5075272;28;20205;-64
2023/04/18 07:31:24;;;;;;;5.85;3.97;;;17.30;56.50;;;;;;5075174;28;20256;-65
2023/04/18 07:33:50;;;;;;;3.65;3.33;;;17.30;56.60;;;;;;5074563;28;20257;-64
2023/04/18 07:36:15;;;;;;;4.35;3.47;;;17.30;56.80;;;;;;5074923;28;20202;-64
2023/04/18 07:38:41;;;;;;;4.00;3.70;;;17.30;56.70;;;;;;5075240;28;20166;-63
2023/04/18 07:41:07;;;;;;;4.07;3.78;;;17.30;56.80;;;;;;5074307;28;20178;-63
2023/04/18 07:43:32;;;;;;;3.78;3.20;;;17.20;56.80;;;;;;5075195;28;20652;-64
2023/04/18 07:45:58;;;;;;;4.75;3.80;;;17.20;56.80;;;;;;5075224;28;20508;-63
2023/04/18 07:48:26;;;;;;;5.45;3.97;;;17.20;56.80;;;;;;5074020;28;20532;-63
2023/04/18 07:50:52;;;;;;;4.32;3.92;;;17.20;56.80;;;;;;5074952;28;20346;-63
2023/04/18 07:53:17;;;;;;;4.65;3.28;;;17.20;56.80;;;;;;5074974;28;20174;-64
2023/04/18 07:55:44;;;;;;;3.58;3.20;;;17.20;56.90;;;;;;5074159;28;20552;-64
2023/04/18 07:58:09;;;;;;;4.13;3.67;;;17.20;56.90;;;;;;5074532;28;20501;-64
2023/04/18 08:00:37;;;;;;;3.80;3.50;;;17.10;56.90;;;;;;5075087;28;20256;-64
2023/04/18 08:03:03;;;;;;;3.70;3.40;;;17.10;57.00;;;;;;5074269;28;20171;-64
2023/04/18 08:05:28;;;;;;;4.07;3.67;;;17.10;57.10;;;;;;5074723;28;20502;-64
2023/04/18 08:07:54;;;;;;;5.25;3.58;;;17.10;57.00;;;;;;5074828;28;20178;-63
2023/04/18 08:10:19;;;;;;;4.28;3.70;;;17.10;57.10;;;;;;5073521;28;20743;-62
2023/04/18 08:12:45;;;;;;;3.92;3.63;;;17.00;57.10;;;;;;5074550;28;20342;-62
2023/04/18 08:15:10;;;;;;;3.95;3.65;;;17.00;57.10;;;;;;5073775;28;20269;-63
2023/04/18 08:17:37;;;;;;;3.45;3.15;;;17.00;57.20;;;;;;5074507;28;20257;-63
2023/04/18 08:20:06;;;;;;;4.15;3.15;;;17.00;57.20;;;;;;5074582;28;20547;-63
2023/04/18 08:22:34;;;;;;;3.78;3.38;;;17.00;57.20;;;;;;5072446;28;20230;-63
2023/04/18 08:25:00;;;;;;;5.40;3.63;;;17.00;57.20;;;;;;5073371;28;20184;-63
2023/04/18 08:27:26;;;;;;;3.53;3.22;;;16.90;57.20;;;;;;5074272;28;20171;-63
2023/04/18 08:29:52;;;;;;;3.60;3.30;;;16.90;57.10;;;;;;5073792;28;20233;-64
2023/04/18 08:32:17;;;;;;;4.03;3.28;;;16.90;57.10;;;;;;5074181;28;20170;-65
2023/04/18 08:34:43;;;;;;;3.38;3.17;;;16.90;57.80;;;;;;5074345;28;20220;-64
2023/04/18 08:37:11;;;;;;;3.65;3.35;;;16.90;57.10;;;;;;5073230;28;20220;-65
2023/04/18 08:39:37;;;;;;;3.88;3.50;;;16.90;57.20;;;;;;5073801;28;20547;-63
2023/04/18 08:42:05;;;;;;;3.60;3.30;;;16.90;57.20;;;;;;5074299;28;20178;-64
2023/04/18 08:44:31;;;;;;;3.05;2.85;;;16.90;57.20;;;;;;5072286;28;20181;-63
2023/04/18 08:46:59;;;;;;;3.50;3.20;;;16.90;57.10;;;;;;5074119;28;20182;-63
2023/04/18 08:49:24;;;;;;;3.50;3.20;;;16.90;57.00;;;;;;5073669;28;20202;-63
2023/04/18 08:51:50;;;;;;;3.60;3.05;;;17.10;57.20;;;;;;5073261;28;20183;-63
2023/04/18 08:54:17;;;;;;;3.40;3.10;;;16.90;57.10;;;;;;5073447;28;20194;-63
2023/04/18 08:56:42;;;;;;;2.80;2.60;;;16.90;57.20;;;;;;5072358;28;20664;-63
2023/04/18 08:59:08;;;;;;;3.35;2.78;;;16.90;57.20;;;;;;5071683;28;20171;-64
2023/04/18 09:01:51;;;;;;;3.30;3.00;;;16.90;57.20;;;;;;5073627;28;20545;-63
2023/04/18 09:04:38;;;;;;;4.63;3.30;;;16.90;57.20;;;;;;5072642;28;20248;-64
2023/04/18 09:07:08;;;;;;;3.45;3.15;;;17.00;57.20;;;;;;5073481;28;20583;-63
2023/04/18 09:09:50;;;;;;;4.03;2.75;;;16.90;57.20;;;;;;5074037;28;20555;-64
2023/04/18 09:12:21;;;;;;;3.17;2.85;;;17.00;57.20;;;;;;5079997;28;20181;-62
2023/04/18 09:14:55;;;;;;;4.15;3.28;;;17.00;57.10;;;;;;5086419;28;20633;-62
2023/04/18 09:17:31;;;;;;;3.17;2.88;;;17.00;57.10;;;;;;5073232;28;20178;-63
2023/04/18 09:19:57;;;;;;;3.42;2.90;;;17.00;57.10;;;;;;5087433;28;20187;-62
2023/04/18 09:22:22;;;;;;;3.40;3.10;;;17.00;57.10;;;;;;5083284;28;20218;-62
2023/04/18 09:24:56;;;;;;;3.28;2.92;;;17.00;57.10;;;;;;5073472;28;20170;-63
2023/04/18 09:27:22;;;;;;;2.80;2.60;;;16.90;57.10;;;;;;5077354;28;20268;-63
2023/04/18 09:29:53;;;;;;;2.92;2.72;;;17.00;57.10;;;;;;5092972;28;20570;-64
2023/04/18 09:32:25;;;;;;;3.33;3.05;;;17.00;57.10;;;;;;5092899;28;20177;-64
2023/04/18 09:34:53;;;;;;;2.35;2.15;;;17.00;57.00;;;;;;5092607;28;20257;-64
2023/04/18 09:37:18;;;;;;;3.05;2.75;;;17.00;57.10;;;;;;5092671;28;20192;-63
2023/04/18 09:39:44;;;;;;;3.17;2.88;;;17.00;57.00;;;;;;5092620;28;20476;-63
2023/04/18 09:42:12;;;;;;;2.80;2.50;;;17.10;57.00;;;;;;5092779;28;20542;-63
2023/04/18 09:45:03;;;;;;;2.85;2.65;;;17.00;57.00;;;;;;5086260;28;20177;-63
2023/04/18 09:47:29;;;;;;;3.00;2.80;;;17.00;57.00;;;;;;5072006;28;20206;-63
2023/04/18 09:49:55;;;;;;;2.90;2.70;;;17.00;57.00;;;;;;5072892;28;20246;-63
2023/04/18 09:52:24;;;;;;;2.95;2.72;;;17.00;57.00;;;;;;5072690;28;20167;-62
2023/04/18 09:54:54;;;;;;;2.85;2.60;;;17.10;57.00;;;;;;5071275;28;20209;-63
2023/04/18 09:57:19;;;;;;;2.65;2.45;;;17.10;56.90;;;;;;5071399;28;20523;-64
2023/04/18 10:00:07;;;;;;;3.10;2.80;;;17.10;56.80;;;;;;5071436;28;20747;-64
2023/04/18 10:02:38;;;;;;;3.35;2.95;;;17.10;56.90;;;;;;5070896;28;20648;-63
2023/04/18 10:05:04;;;;;;;2.72;2.53;;;17.10;56.80;;;;;;5072896;28;20170;-64
2023/04/18 10:07:29;;;;;;;3.05;2.83;;;17.10;56.80;;;;;;5071497;28;20282;-63
2023/04/18 10:09:55;;;;;;;2.60;2.40;;;17.10;56.80;;;;;;5054219;28;20240;-62
2023/04/18 10:12:20;;;;;;;2.97;2.63;;;17.10;56.70;;;;;;5072431;28;20174;-62
2023/04/18 10:14:46;;;;;;;2.83;2.63;;;17.20;56.60;;;;;;5071909;28;20664;-63
2023/04/18 10:17:13;;;;;;;2.60;2.40;;;17.20;56.60;;;;;;5072311;28;20170;-62
2023/04/18 10:19:43;;;;;;;3.10;2.65;;;17.20;56.60;;;;;;5086706;28;20205;-63
2023/04/18 10:22:08;;;;;;;2.60;2.33;;;17.20;56.60;;;;;;5091565;28;20202;-62
2023/04/18 10:24:52;;;;;;;3.03;2.83;;;17.20;56.60;;;;;;5092904;28;20641;-62
2023/04/18 10:27:19;;;;;;;2.58;2.38;;;17.20;56.70;;;;;;5092436;28;20173;-63
2023/04/18 10:29:49;;;;;;;2.80;2.60;;;17.10;56.80;;;;;;5090692;28;20213;-65
2023/04/18 10:32:16;;;;;;;2.78;2.58;;;17.00;56.70;;;;;;5092445;28;20178;-65
2023/04/18 10:34:41;;;;;;;2.17;2.08;;;17.10;56.90;;;;;;5093070;28;20173;-65
2023/04/18 10:37:07;;;;;;;2.72;2.53;;;17.00;57.00;;;;;;5090536;28;20174;-63
2023/04/18 10:39:57;;;;;;;3.05;2.75;;;17.00;56.90;;;;;;5092825;28;20169;-64
2023/04/18 10:42:44;;;;;;;2.72;2.53;;;17.00;56.90;;;;;;5085820;28;20546;-64
2023/04/18 10:45:19;;;;;;;2.83;2.30;;;17.00;56.90;;;;;;5092387;28;20174;-64
2023/04/18 10:47:45;;;;;;;2.60;2.40;;;17.00;56.70;;;;;;5093585;28;20192;-64
2023/04/18 10:50:10;;;;;;;3.45;2.75;;;17.00;56.70;;;;;;5095419;28;20579;-63
2023/04/18 10:52:36;;;;;;;2.95;2.47;;;17.00;56.70;;;;;;5096366;28;20803;-66
2023/04/18 10:55:19;;;;;;;4.22;2.83;;;17.00;56.60;;;;;;5096186;28;20178;-67
2023/04/18 10:57:46;;;;;;;2.60;2.40;;;17.10;56.70;;;;;;5094330;28;20170;-66
2023/04/18 11:00:14;;;;;;;3.75;2.97;;;17.10;56.70;;;;;;5096149;28;20257;-62
2023/04/18 11:02:52;;;;;;;2.97;2.30;;;17.00;56.50;;;;;;5096246;28;20256;-62
2023/04/18 11:05:19;;;;;;;4.32;2.90;;;17.10;56.60;;;;;;5094060;28;20181;-62
2023/04/18 11:07:47;;;;;;;3.90;3.13;;;17.20;56.50;;;;;;5096013;28;20181;-62
2023/04/18 11:10:14;;;;;;;2.60;2.40;;;17.20;56.50;;;;;;5095789;28;20297;-61
2023/04/18 11:12:40;;;;;;;4.00;2.50;;;17.30;56.40;;;;;;5094259;28;20212;-62
2023/04/18 11:15:10;;;;;;;3.25;2.70;;;17.20;56.50;;;;;;5095952;28;20177;-63
2023/04/18 11:17:38;;;;;;;2.67;2.47;;;17.20;56.50;;;;;;5096038;28;20178;-61
2023/04/18 11:20:09;;;;;;;3.03;2.80;;;17.20;56.60;;;;;;5076940;28;20282;-61
2023/04/18 11:22:45;;;;;;;3.10;2.80;;;17.20;56.70;;;;;;5075555;28;20299;-61
2023/04/18 11:25:13;;;;;;;3.25;2.40;;;17.20;56.70;;;;;;5074727;28;20253;-61
2023/04/18 11:27:46;;;;;;;2.90;2.70;;;17.20;56.70;;;;;;5075600;28;20219;-62
2023/04/18 11:30:12;;;;;;;2.70;2.50;;;17.20;56.80;;;;;;5075124;28;20202;-63
2023/04/18 11:32:38;;;;;;;5.65;2.90;;;17.20;56.70;;;;;;5074613;28;20170;-62
2023/04/18 11:35:03;;;;;;;4.07;2.47;;;17.20;56.50;;;;;;5075215;28;20681;-63
2023/04/18 11:37:32;;;;;;;4.35;2.60;;;17.20;56.50;;;;;;5075138;28;20174;-62
2023/04/18 11:39:57;;;;;;;3.92;2.92;;;17.10;56.60;;;;;;5074498;28;20232;-62
2023/04/18 11:42:27;;;;;;;4.07;3.30;;;17.10;56.70;;;;;;5074841;28;20630;-62
2023/04/18 11:44:53;;;;;;;3.15;2.70;;;17.10;56.80;;;;;;5074982;28;20185;-62
2023/04/18 11:47:25;;;;;;;3.83;2.70;;;17.10;56.80;;;;;;5074332;28;20179;-62
2023/04/18 11:49:55;;;;;;;3.35;2.67;;;17.00;56.60;;;;;;5075217;28;20218;-61
2023/04/18 11:52:20;;;;;;;3.15;2.88;;;17.00;56.50;;;;;;5074966;28;20174;-62
2023/04/18 11:54:46;;;;;;;2.67;2.47;;;17.10;56.50;;;;;;5074323;28;20174;-61
2023/04/18 11:57:20;;;;;;;4.13;3.00;;;17.10;56.60;;;;;;5074597;28;20536;-62
2023/04/18 11:59:56;;;;;;;3.47;3.17;;;17.00;57.00;;;;;;5074662;28;20186;-62
2023/04/18 12:02:23;;;;;;;3.25;2.92;;;17.10;56.40;;;;;;5073905;28;20175;-62
2023/04/18 12:04:51;;;;;;;3.30;3.00;;;17.00;56.30;;;;;;5074856;28;20174;-62
2023/04/18 12:07:36;;;;;;;3.28;2.78;;;17.00;56.30;;;;;;5073867;28;20170;-61
2023/04/18 12:10:02;;;;;;;3.20;2.90;;;17.10;56.30;;;;;;5074590;28;20202;-61
2023/04/18 12:12:28;;;;;;;3.40;3.10;;;17.20;56.20;;;;;;5074440;28;20201;-61
2023/04/18 12:15:07;;;;;;;2.97;2.78;;;17.20;56.00;;;;;;5073367;28;20183;-61
2023/04/18 12:17:32;;;;;;;2.90;2.70;;;17.20;56.00;;;;;;5074092;28;20253;-61
2023/04/18 12:20:05;;;;;;;3.00;2.80;;;17.20;56.10;;;;;;5090610;28;20227;-62
2023/04/18 12:22:37;;;;;;;3.33;3.05;;;17.20;56.00;;;;;;5091888;28;20229;-61
2023/04/18 12:25:22;;;;;;;3.45;2.80;;;17.20;56.70;;;;;;5093445;28;20185;-61
2023/04/18 12:27:48;;;;;;;2.88;2.67;;;17.20;56.10;;;;;;5094835;28;20294;-62
2023/04/18 12:30:14;;;;;;;2.92;2.72;;;17.10;56.20;;;;;;5092681;28;20304;-63
2023/04/18 12:32:40;;;;;;;3.28;2.97;;;17.10;56.20;;;;;;5093211;28;20193;-62
2023/04/18 12:35:09;;;;;;;3.80;3.40;;;17.10;56.30;;;;;;5092973;28;20182;-62
2023/04/18 12:37:34;;;;;;;3.45;3.15;;;17.10;56.30;;;;;;5092646;28;20194;-62
2023/04/18 12:40:00;;;;;;;3.20;2.90;;;17.00;56.30;;;;;;5093327;28;20231;-61
2023/04/18 12:42:25;;;;;;;3.40;3.10;;;17.00;56.20;;;;;;5092210;28;20170;-62
2023/04/18 12:44:51;;;;;;;3.63;3.33;;;17.00;56.20;;;;;;5093415;28;20572;-62
2023/04/18 12:47:17;;;;;;;3.15;2.90;;;17.00;56.20;;;;;;5094014;28;20574;-62